sensor_id;sensor_type;location;lat;lon;timestamp;P1;durP1;ratioP1;P2;durP2;ratioP2
51020;SDS011;38907;45.562;8.856;2022-11-25T00:04:52;30.15;;;17.23;;
51020;SDS011;38907;45.562;8.856;2022-11-25T00:09:55;32.03;;;18.45;;
51020;SDS011;38907;45.562;8.856;2022-11-25T00:14:57;40.03;;;17.92;;
51020;SDS011;38907;45.562;8.856;2022-11-25T00:19:59;29.02;;;16.80;;
51020;SDS011;38907;45.562;8.856;2022-11-25T00:25:06;34.55;;;16.77;;
51020;SDS011;38907;45.562;8.856;2022-11-25T00:30:09;23.90;;;15.05;;
51020;SDS011;38907;45.562;8.856;2022-11-25T00:35:11;21.67;;;15.40;;
51020;SDS011;38907;45.562;8.856;2022-11-25T00:40:15;26.20;;;15.98;;
51020;SDS011;38907;45.562;8.856;2022-11-25T00:45:17;34.22;;;17.05;;
51020;SDS011;38907;45.562;8.856;2022-11-25T00:50:19;34.78;;;16.17;;
51020;SDS011;38907;45.562;8.856;2022-11-25T00:55:22;30.67;;;18.13;;
51020;SDS011;38907;45.562;8.856;2022-11-25T01:00:24;36.95;;;19.30;;
51020;SDS011;38907;45.562;8.856;2022-11-25T01:05:26;34.15;;;18.50;;
51020;SDS011;38907;45.562;8.856;2022-11-25T01:10:29;30.77;;;18.23;;
51020;SDS011;38907;45.562;8.856;2022-11-25T01:15:31;28.48;;;16.90;;
51020;SDS011;38907;45.562;8.856;2022-11-25T01:20:36;32.10;;;16.77;;
51020;SDS011;38907;45.562;8.856;2022-11-25T01:25:39;25.58;;;15.98;;
51020;SDS011;38907;45.562;8.856;2022-11-25T01:30:41;26.70;;;15.77;;
51020;SDS011;38907;45.562;8.856;2022-11-25T01:35:43;24.55;;;13.98;;
51020;SDS011;38907;45.562;8.856;2022-11-25T01:40:46;25.63;;;16.90;;
51020;SDS011;38907;45.562;8.856;2022-11-25T01:45:48;31.58;;;16.85;;
51020;SDS011;38907;45.562;8.856;2022-11-25T01:50:50;26.15;;;16.80;;
51020;SDS011;38907;45.562;8.856;2022-11-25T01:55:56;24.98;;;14.77;;
51020;SDS011;38907;45.562;8.856;2022-11-25T02:01:02;24.45;;;16.58;;
51020;SDS011;38907;45.562;8.856;2022-11-25T02:06:05;23.10;;;14.82;;
51020;SDS011;38907;45.562;8.856;2022-11-25T02:11:12;23.98;;;14.13;;
51020;SDS011;38907;45.562;8.856;2022-11-25T02:16:16;26.05;;;16.85;;
51020;SDS011;38907;45.562;8.856;2022-11-25T02:21:20;22.77;;;15.13;;
51020;SDS011;38907;45.562;8.856;2022-11-25T02:26:28;25.80;;;15.68;;
51020;SDS011;38907;45.562;8.856;2022-11-25T02:31:31;29.05;;;15.52;;
51020;SDS011;38907;45.562;8.856;2022-11-25T02:36:33;24.20;;;15.93;;
51020;SDS011;38907;45.562;8.856;2022-11-25T02:41:37;24.92;;;14.93;;
51020;SDS011;38907;45.562;8.856;2022-11-25T02:46:43;21.02;;;14.45;;
51020;SDS011;38907;45.562;8.856;2022-11-25T02:51:46;24.20;;;15.13;;
51020;SDS011;38907;45.562;8.856;2022-11-25T02:56:49;30.92;;;14.50;;
51020;SDS011;38907;45.562;8.856;2022-11-25T03:01:51;22.58;;;14.05;;
51020;SDS011;38907;45.562;8.856;2022-11-25T03:06:53;24.13;;;14.98;;
51020;SDS011;38907;45.562;8.856;2022-11-25T03:11:56;25.08;;;14.23;;
51020;SDS011;38907;45.562;8.856;2022-11-25T03:17:15;24.23;;;14.25;;
51020;SDS011;38907;45.562;8.856;2022-11-25T03:22:17;22.05;;;14.20;;
51020;SDS011;38907;45.562;8.856;2022-11-25T03:27:20;24.00;;;14.90;;
51020;SDS011;38907;45.562;8.856;2022-11-25T03:32:22;19.65;;;13.57;;
51020;SDS011;38907;45.562;8.856;2022-11-25T03:37:24;23.45;;;13.70;;
51020;SDS011;38907;45.562;8.856;2022-11-25T03:42:28;26.55;;;15.20;;
51020;SDS011;38907;45.562;8.856;2022-11-25T03:47:29;26.40;;;14.48;;
51020;SDS011;38907;45.562;8.856;2022-11-25T03:52:31;25.67;;;15.48;;
51020;SDS011;38907;45.562;8.856;2022-11-25T03:57:35;24.98;;;13.77;;
51020;SDS011;38907;45.562;8.856;2022-11-25T04:02:36;20.65;;;13.75;;
51020;SDS011;38907;45.562;8.856;2022-11-25T04:07:38;25.50;;;14.35;;
51020;SDS011;38907;45.562;8.856;2022-11-25T04:12:42;20.67;;;12.98;;
51020;SDS011;38907;45.562;8.856;2022-11-25T04:17:46;26.80;;;13.43;;
51020;SDS011;38907;45.562;8.856;2022-11-25T04:22:48;25.65;;;14.73;;
51020;SDS011;38907;45.562;8.856;2022-11-25T04:27:51;20.58;;;12.55;;
51020;SDS011;38907;45.562;8.856;2022-11-25T04:32:53;33.53;;;13.90;;
51020;SDS011;38907;45.562;8.856;2022-11-25T04:37:56;20.85;;;12.38;;
51020;SDS011;38907;45.562;8.856;2022-11-25T04:42:59;20.90;;;13.43;;
51020;SDS011;38907;45.562;8.856;2022-11-25T04:48:01;22.75;;;13.60;;
51020;SDS011;38907;45.562;8.856;2022-11-25T04:53:03;20.30;;;13.23;;
51020;SDS011;38907;45.562;8.856;2022-11-25T04:58:06;20.48;;;12.40;;
51020;SDS011;38907;45.562;8.856;2022-11-25T05:03:09;25.23;;;13.63;;
51020;SDS011;38907;45.562;8.856;2022-11-25T05:08:11;22.08;;;14.85;;
51020;SDS011;38907;45.562;8.856;2022-11-25T05:13:14;18.80;;;12.55;;
51020;SDS011;38907;45.562;8.856;2022-11-25T05:18:16;19.05;;;12.50;;
51020;SDS011;38907;45.562;8.856;2022-11-25T05:23:18;23.17;;;12.80;;
51020;SDS011;38907;45.562;8.856;2022-11-25T05:28:21;21.30;;;12.57;;
51020;SDS011;38907;45.562;8.856;2022-11-25T05:33:23;19.35;;;11.98;;
51020;SDS011;38907;45.562;8.856;2022-11-25T05:38:25;21.05;;;12.82;;
51020;SDS011;38907;45.562;8.856;2022-11-25T05:43:29;24.15;;;11.95;;
51020;SDS011;38907;45.562;8.856;2022-11-25T05:48:31;19.38;;;11.95;;
51020;SDS011;38907;45.562;8.856;2022-11-25T05:53:34;22.35;;;13.32;;
51020;SDS011;38907;45.562;8.856;2022-11-25T05:58:38;18.07;;;12.43;;
51020;SDS011;38907;45.562;8.856;2022-11-25T06:03:40;20.10;;;11.63;;
51020;SDS011;38907;45.562;8.856;2022-11-25T06:08:42;19.20;;;11.40;;
51020;SDS011;38907;45.562;8.856;2022-11-25T06:13:46;19.50;;;11.85;;
51020;SDS011;38907;45.562;8.856;2022-11-25T06:18:48;20.20;;;12.10;;
51020;SDS011;38907;45.562;8.856;2022-11-25T06:23:50;20.02;;;12.10;;
51020;SDS011;38907;45.562;8.856;2022-11-25T06:28:54;18.98;;;12.25;;
51020;SDS011;38907;45.562;8.856;2022-11-25T06:33:56;21.00;;;12.60;;
51020;SDS011;38907;45.562;8.856;2022-11-25T06:38:58;22.10;;;13.00;;
51020;SDS011;38907;45.562;8.856;2022-11-25T06:44:01;25.50;;;14.10;;
51020;SDS011;38907;45.562;8.856;2022-11-25T06:49:03;20.80;;;11.95;;
51020;SDS011;38907;45.562;8.856;2022-11-25T06:54:06;20.48;;;12.25;;
51020;SDS011;38907;45.562;8.856;2022-11-25T06:59:10;20.77;;;13.38;;
51020;SDS011;38907;45.562;8.856;2022-11-25T07:04:12;29.25;;;13.10;;
51020;SDS011;38907;45.562;8.856;2022-11-25T07:09:14;21.23;;;12.35;;
51020;SDS011;38907;45.562;8.856;2022-11-25T07:14:17;26.05;;;13.07;;
51020;SDS011;38907;45.562;8.856;2022-11-25T07:19:19;28.73;;;15.68;;
51020;SDS011;38907;45.562;8.856;2022-11-25T07:24:21;22.65;;;14.00;;
51020;SDS011;38907;45.562;8.856;2022-11-25T07:29:24;19.13;;;12.52;;
51020;SDS011;38907;45.562;8.856;2022-11-25T07:34:27;19.92;;;12.90;;
51020;SDS011;38907;45.562;8.856;2022-11-25T07:39:29;24.50;;;13.25;;
51020;SDS011;38907;45.562;8.856;2022-11-25T07:44:32;22.67;;;13.98;;
51020;SDS011;38907;45.562;8.856;2022-11-25T07:49:34;21.42;;;13.98;;
51020;SDS011;38907;45.562;8.856;2022-11-25T07:54:36;25.85;;;15.13;;
51020;SDS011;38907;45.562;8.856;2022-11-25T07:59:39;26.77;;;15.52;;
51020;SDS011;38907;45.562;8.856;2022-11-25T08:04:41;24.17;;;15.80;;
51020;SDS011;38907;45.562;8.856;2022-11-25T08:09:43;20.08;;;13.75;;
51020;SDS011;38907;45.562;8.856;2022-11-25T08:14:46;28.27;;;17.20;;
51020;SDS011;38907;45.562;8.856;2022-11-25T08:19:48;30.50;;;19.98;;
51020;SDS011;38907;45.562;8.856;2022-11-25T08:24:50;30.08;;;19.35;;
51020;SDS011;38907;45.562;8.856;2022-11-25T08:29:53;28.40;;;17.38;;
51020;SDS011;38907;45.562;8.856;2022-11-25T08:34:55;37.88;;;22.08;;
51020;SDS011;38907;45.562;8.856;2022-11-25T08:39:57;33.35;;;20.52;;
51020;SDS011;38907;45.562;8.856;2022-11-25T08:45:00;33.65;;;19.63;;
51020;SDS011;38907;45.562;8.856;2022-11-25T08:50:04;34.72;;;20.92;;
51020;SDS011;38907;45.562;8.856;2022-11-25T08:55:07;35.80;;;22.73;;
51020;SDS011;38907;45.562;8.856;2022-11-25T09:00:11;33.80;;;22.63;;
51020;SDS011;38907;45.562;8.856;2022-11-25T09:05:15;32.53;;;23.17;;
51020;SDS011;38907;45.562;8.856;2022-11-25T09:10:17;31.85;;;22.63;;
51020;SDS011;38907;45.562;8.856;2022-11-25T09:15:20;36.13;;;22.88;;
51020;SDS011;38907;45.562;8.856;2022-11-25T09:20:22;30.02;;;21.50;;
51020;SDS011;38907;45.562;8.856;2022-11-25T09:25:24;32.08;;;20.92;;
51020;SDS011;38907;45.562;8.856;2022-11-25T09:30:28;36.95;;;21.60;;
51020;SDS011;38907;45.562;8.856;2022-11-25T09:40:33;32.25;;;21.05;;
51020;SDS011;38907;45.562;8.856;2022-11-25T09:45:45;34.20;;;21.17;;
51020;SDS011;38907;45.562;8.856;2022-11-25T09:51:10;30.55;;;20.88;;
51020;SDS011;38907;45.562;8.856;2022-11-25T09:56:28;32.58;;;21.45;;
51020;SDS011;38907;45.562;8.856;2022-11-25T10:01:42;34.90;;;21.83;;
51020;SDS011;38907;45.562;8.856;2022-11-25T10:06:48;38.35;;;25.23;;
51020;SDS011;38907;45.562;8.856;2022-11-25T10:11:54;39.15;;;26.42;;
51020;SDS011;38907;45.562;8.856;2022-11-25T10:17:02;39.42;;;26.98;;
51020;SDS011;38907;45.562;8.856;2022-11-25T10:22:14;47.28;;;28.02;;
51020;SDS011;38907;45.562;8.856;2022-11-25T10:27:23;39.85;;;26.05;;
51020;SDS011;38907;45.562;8.856;2022-11-25T10:32:32;40.53;;;26.67;;
51020;SDS011;38907;45.562;8.856;2022-11-25T10:37:42;48.20;;;27.93;;
51020;SDS011;38907;45.562;8.856;2022-11-25T10:42:45;45.75;;;27.92;;
51020;SDS011;38907;45.562;8.856;2022-11-25T10:47:55;44.33;;;29.05;;
51020;SDS011;38907;45.562;8.856;2022-11-25T10:53:09;46.47;;;28.58;;
51020;SDS011;38907;45.562;8.856;2022-11-25T10:58:19;50.10;;;28.58;;
51020;SDS011;38907;45.562;8.856;2022-11-25T11:03:29;41.53;;;26.63;;
51020;SDS011;38907;45.562;8.856;2022-11-25T11:08:35;46.35;;;27.58;;
51020;SDS011;38907;45.562;8.856;2022-11-25T11:13:38;43.20;;;27.05;;
51020;SDS011;38907;45.562;8.856;2022-11-25T11:18:42;49.08;;;29.80;;
51020;SDS011;38907;45.562;8.856;2022-11-25T11:23:46;45.78;;;27.63;;
51020;SDS011;38907;45.562;8.856;2022-11-25T11:28:55;46.60;;;29.10;;
51020;SDS011;38907;45.562;8.856;2022-11-25T11:34:02;46.13;;;29.65;;
51020;SDS011;38907;45.562;8.856;2022-11-25T11:39:27;54.00;;;29.80;;
51020;SDS011;38907;45.562;8.856;2022-11-25T11:44:52;50.58;;;30.73;;
51020;SDS011;38907;45.562;8.856;2022-11-25T11:50:07;51.67;;;32.63;;
51020;SDS011;38907;45.562;8.856;2022-11-25T11:55:27;57.58;;;35.15;;
51020;SDS011;38907;45.562;8.856;2022-11-25T12:00:42;56.28;;;34.03;;
51020;SDS011;38907;45.562;8.856;2022-11-25T12:05:52;57.97;;;34.30;;
51020;SDS011;38907;45.562;8.856;2022-11-25T12:10:57;62.60;;;35.65;;
51020;SDS011;38907;45.562;8.856;2022-11-25T12:16:03;63.72;;;36.25;;
51020;SDS011;38907;45.562;8.856;2022-11-25T12:21:12;61.67;;;37.47;;
51020;SDS011;38907;45.562;8.856;2022-11-25T12:26:23;56.22;;;36.60;;
51020;SDS011;38907;45.562;8.856;2022-11-25T12:31:33;58.67;;;35.45;;
51020;SDS011;38907;45.562;8.856;2022-11-25T12:36:41;50.42;;;34.85;;
51020;SDS011;38907;45.562;8.856;2022-11-25T12:41:46;57.47;;;34.80;;
51020;SDS011;38907;45.562;8.856;2022-11-25T12:46:52;58.10;;;36.35;;
51020;SDS011;38907;45.562;8.856;2022-11-25T12:52:05;60.92;;;35.72;;
51020;SDS011;38907;45.562;8.856;2022-11-25T13:03:05;66.80;;;39.03;;
51020;SDS011;38907;45.562;8.856;2022-11-25T13:08:49;65.10;;;37.80;;
51020;SDS011;38907;45.562;8.856;2022-11-25T13:13:57;65.38;;;38.58;;
51020;SDS011;38907;45.562;8.856;2022-11-25T13:19:07;66.15;;;39.88;;
51020;SDS011;38907;45.562;8.856;2022-11-25T13:24:25;69.60;;;40.33;;
51020;SDS011;38907;45.562;8.856;2022-11-25T13:40:56;60.13;;;36.58;;
51020;SDS011;38907;45.562;8.856;2022-11-25T13:45:58;69.93;;;39.90;;
51020;SDS011;38907;45.562;8.856;2022-11-25T13:51:14;61.67;;;40.25;;
51020;SDS011;38907;45.562;8.856;2022-11-25T13:56:25;63.58;;;39.15;;
51020;SDS011;38907;45.562;8.856;2022-11-25T14:01:29;64.82;;;39.40;;
51020;SDS011;38907;45.562;8.856;2022-11-25T14:28:28;74.78;;;42.10;;
51020;SDS011;38907;45.562;8.856;2022-11-25T14:33:35;76.68;;;44.83;;
51020;SDS011;38907;45.562;8.856;2022-11-25T14:38:53;66.63;;;40.50;;
51020;SDS011;38907;45.562;8.856;2022-11-25T14:44:01;71.53;;;40.58;;
51020;SDS011;38907;45.562;8.856;2022-11-25T14:49:06;69.20;;;40.30;;
51020;SDS011;38907;45.562;8.856;2022-11-25T14:54:08;70.22;;;42.33;;
51020;SDS011;38907;45.562;8.856;2022-11-25T14:59:12;67.80;;;41.85;;
51020;SDS011;38907;45.562;8.856;2022-11-25T15:04:16;67.50;;;42.78;;
51020;SDS011;38907;45.562;8.856;2022-11-25T15:09:21;65.57;;;42.38;;
51020;SDS011;38907;45.562;8.856;2022-11-25T15:14:27;72.40;;;43.88;;
51020;SDS011;38907;45.562;8.856;2022-11-25T15:19:31;68.03;;;42.03;;
51020;SDS011;38907;45.562;8.856;2022-11-25T15:24:39;78.60;;;45.33;;
51020;SDS011;38907;45.562;8.856;2022-11-25T15:29:46;72.40;;;45.65;;
51020;SDS011;38907;45.562;8.856;2022-11-25T15:34:49;73.78;;;45.50;;
51020;SDS011;38907;45.562;8.856;2022-11-25T15:45:31;71.95;;;44.60;;
51020;SDS011;38907;45.562;8.856;2022-11-25T15:50:42;77.40;;;46.95;;
51020;SDS011;38907;45.562;8.856;2022-11-25T15:55:44;77.18;;;45.28;;
51020;SDS011;38907;45.562;8.856;2022-11-25T16:01:01;85.35;;;48.83;;
51020;SDS011;38907;45.562;8.856;2022-11-25T16:06:16;75.85;;;45.78;;
51020;SDS011;38907;45.562;8.856;2022-11-25T16:11:20;78.05;;;46.75;;
51020;SDS011;38907;45.562;8.856;2022-11-25T16:16:26;72.97;;;46.20;;
51020;SDS011;38907;45.562;8.856;2022-11-25T16:21:35;81.47;;;46.72;;
51020;SDS011;38907;45.562;8.856;2022-11-25T16:26:48;81.97;;;50.75;;
51020;SDS011;38907;45.562;8.856;2022-11-25T16:31:53;89.18;;;51.10;;
51020;SDS011;38907;45.562;8.856;2022-11-25T16:36:55;98.75;;;56.55;;
51020;SDS011;38907;45.562;8.856;2022-11-25T16:41:57;81.65;;;48.00;;
51020;SDS011;38907;45.562;8.856;2022-11-25T16:47:04;85.47;;;48.17;;
51020;SDS011;38907;45.562;8.856;2022-11-25T16:52:09;76.32;;;47.30;;
51020;SDS011;38907;45.562;8.856;2022-11-25T16:57:13;74.70;;;46.38;;
51020;SDS011;38907;45.562;8.856;2022-11-25T17:02:20;79.53;;;48.55;;
51020;SDS011;38907;45.562;8.856;2022-11-25T17:07:22;77.00;;;46.00;;
51020;SDS011;38907;45.562;8.856;2022-11-25T17:12:29;83.35;;;50.35;;
51020;SDS011;38907;45.562;8.856;2022-11-25T17:17:35;86.03;;;50.55;;
51020;SDS011;38907;45.562;8.856;2022-11-25T17:22:37;97.05;;;54.28;;
51020;SDS011;38907;45.562;8.856;2022-11-25T17:27:39;106.13;;;61.85;;
51020;SDS011;38907;45.562;8.856;2022-11-25T17:32:43;106.77;;;65.53;;
51020;SDS011;38907;45.562;8.856;2022-11-25T17:37:46;114.80;;;69.95;;
51020;SDS011;38907;45.562;8.856;2022-11-25T17:42:48;112.90;;;63.27;;
51020;SDS011;38907;45.562;8.856;2022-11-25T17:47:51;132.05;;;79.85;;
51020;SDS011;38907;45.562;8.856;2022-11-25T17:52:53;118.93;;;68.57;;
51020;SDS011;38907;45.562;8.856;2022-11-25T17:57:55;105.93;;;59.90;;
51020;SDS011;38907;45.562;8.856;2022-11-25T18:02:59;112.13;;;62.17;;
51020;SDS011;38907;45.562;8.856;2022-11-25T18:08:01;101.85;;;56.88;;
51020;SDS011;38907;45.562;8.856;2022-11-25T18:13:02;110.55;;;61.70;;
51020;SDS011;38907;45.562;8.856;2022-11-25T18:18:20;121.67;;;67.97;;
51020;SDS011;38907;45.562;8.856;2022-11-25T18:23:23;119.28;;;67.07;;
51020;SDS011;38907;45.562;8.856;2022-11-25T18:28:25;109.90;;;60.58;;
51020;SDS011;38907;45.562;8.856;2022-11-25T18:33:32;105.60;;;57.80;;
51020;SDS011;38907;45.562;8.856;2022-11-25T18:43:36;98.50;;;55.78;;
51020;SDS011;38907;45.562;8.856;2022-11-25T18:48:39;124.68;;;71.72;;
51020;SDS011;38907;45.562;8.856;2022-11-25T18:53:41;131.15;;;75.10;;
51020;SDS011;38907;45.562;8.856;2022-11-25T18:58:44;128.90;;;75.22;;
51020;SDS011;38907;45.562;8.856;2022-11-25T19:03:52;126.65;;;70.60;;
51020;SDS011;38907;45.562;8.856;2022-11-25T19:08:55;139.82;;;77.68;;
51020;SDS011;38907;45.562;8.856;2022-11-25T19:13:58;108.78;;;62.50;;
51020;SDS011;38907;45.562;8.856;2022-11-25T19:19:04;89.53;;;51.45;;
51020;SDS011;38907;45.562;8.856;2022-11-25T19:24:09;91.75;;;51.20;;
51020;SDS011;38907;45.562;8.856;2022-11-25T19:29:15;83.95;;;47.55;;
51020;SDS011;38907;45.562;8.856;2022-11-25T19:34:23;87.20;;;52.08;;
51020;SDS011;38907;45.562;8.856;2022-11-25T19:39:27;95.85;;;56.67;;
51020;SDS011;38907;45.562;8.856;2022-11-25T19:44:30;92.15;;;56.70;;
51020;SDS011;38907;45.562;8.856;2022-11-25T19:49:34;101.60;;;55.60;;
51020;SDS011;38907;45.562;8.856;2022-11-25T19:54:36;82.47;;;49.05;;
51020;SDS011;38907;45.562;8.856;2022-11-25T19:59:38;76.00;;;44.92;;
51020;SDS011;38907;45.562;8.856;2022-11-25T20:04:41;76.72;;;44.88;;
51020;SDS011;38907;45.562;8.856;2022-11-25T20:09:44;76.70;;;44.35;;
51020;SDS011;38907;45.562;8.856;2022-11-25T20:14:47;85.43;;;47.47;;
51020;SDS011;38907;45.562;8.856;2022-11-25T20:19:52;87.35;;;52.28;;
51020;SDS011;38907;45.562;8.856;2022-11-25T20:24:57;81.15;;;50.10;;
51020;SDS011;38907;45.562;8.856;2022-11-25T20:30:05;89.75;;;49.55;;
51020;SDS011;38907;45.562;8.856;2022-11-25T20:35:15;85.75;;;51.20;;
51020;SDS011;38907;45.562;8.856;2022-11-25T20:40:18;80.68;;;46.28;;
51020;SDS011;38907;45.562;8.856;2022-11-25T20:45:22;76.55;;;45.35;;
51020;SDS011;38907;45.562;8.856;2022-11-25T20:50:26;72.22;;;43.47;;
51020;SDS011;38907;45.562;8.856;2022-11-25T20:55:30;78.28;;;46.35;;
51020;SDS011;38907;45.562;8.856;2022-11-25T21:00:32;76.03;;;47.08;;
51020;SDS011;38907;45.562;8.856;2022-11-25T21:05:35;77.75;;;44.22;;
51020;SDS011;38907;45.562;8.856;2022-11-25T21:10:37;71.07;;;40.70;;
51020;SDS011;38907;45.562;8.856;2022-11-25T21:15:39;73.47;;;42.88;;
51020;SDS011;38907;45.562;8.856;2022-11-25T21:20:43;79.03;;;43.67;;
51020;SDS011;38907;45.562;8.856;2022-11-25T21:25:45;77.32;;;42.97;;
51020;SDS011;38907;45.562;8.856;2022-11-25T21:30:47;81.00;;;44.30;;
51020;SDS011;38907;45.562;8.856;2022-11-25T21:35:51;78.03;;;45.88;;
51020;SDS011;38907;45.562;8.856;2022-11-25T21:40:54;86.05;;;50.15;;
51020;SDS011;38907;45.562;8.856;2022-11-25T21:45:58;92.00;;;55.13;;
51020;SDS011;38907;45.562;8.856;2022-11-25T21:51:03;97.93;;;51.75;;
51020;SDS011;38907;45.562;8.856;2022-11-25T21:56:10;92.18;;;56.30;;
51020;SDS011;38907;45.562;8.856;2022-11-25T22:01:17;88.85;;;50.03;;
51020;SDS011;38907;45.562;8.856;2022-11-25T22:06:21;84.93;;;47.70;;
51020;SDS011;38907;45.562;8.856;2022-11-25T22:11:25;83.50;;;50.67;;
51020;SDS011;38907;45.562;8.856;2022-11-25T22:16:31;91.55;;;53.10;;
51020;SDS011;38907;45.562;8.856;2022-11-25T22:21:37;81.43;;;47.47;;
51020;SDS011;38907;45.562;8.856;2022-11-25T22:26:39;87.22;;;48.60;;
51020;SDS011;38907;45.562;8.856;2022-11-25T22:31:41;81.03;;;49.30;;
51020;SDS011;38907;45.562;8.856;2022-11-25T22:36:44;87.85;;;48.42;;
51020;SDS011;38907;45.562;8.856;2022-11-25T22:46:49;81.60;;;47.00;;
51020;SDS011;38907;45.562;8.856;2022-11-25T22:51:53;77.40;;;43.30;;
51020;SDS011;38907;45.562;8.856;2022-11-25T22:56:55;79.32;;;42.17;;
51020;SDS011;38907;45.562;8.856;2022-11-25T23:01:57;73.07;;;41.80;;
51020;SDS011;38907;45.562;8.856;2022-11-25T23:07:00;76.60;;;42.63;;
51020;SDS011;38907;45.562;8.856;2022-11-25T23:12:02;68.43;;;42.92;;
51020;SDS011;38907;45.562;8.856;2022-11-25T23:17:05;78.55;;;43.45;;
51020;SDS011;38907;45.562;8.856;2022-11-25T23:22:11;83.93;;;45.67;;
51020;SDS011;38907;45.562;8.856;2022-11-25T23:27:14;80.68;;;44.80;;
51020;SDS011;38907;45.562;8.856;2022-11-25T23:32:16;75.57;;;42.85;;
51020;SDS011;38907;45.562;8.856;2022-11-25T23:42:23;70.85;;;39.13;;
51020;SDS011;38907;45.562;8.856;2022-11-25T23:47:24;73.95;;;39.05;;
51020;SDS011;38907;45.562;8.856;2022-11-25T23:52:28;67.45;;;39.28;;
51020;SDS011;38907;45.562;8.856;2022-11-25T23:57:30;66.63;;;37.25;;
